Time;durP1;ratioP1;P1;durP2;ratioP2;P2;SDS_P1;SDS_P2;PMS_P1;PMS_P2;Temp;Humidity;BMP_temperature;BMP_pressure;BME280_temperature;BME280_humidity;BME280_pressure;Samples;Min_cycle;Max_cycle;Signal;HPM_P1;HPM_P2
2022/05/19 00:02:14;;;;;;;37.63;14.90;;;15.10;99.90;;;;;;5069341;28;20045;-61
2022/05/19 00:04:40;;;;;;;29.05;14.57;;;15.10;99.90;;;;;;5065426;28;20269;-63
2022/05/19 00:07:07;;;;;;;37.15;15.95;;;15.10;99.90;;;;;;5066582;28;20486;-65
2022/05/19 00:09:33;;;;;;;35.25;16.05;;;15.10;99.90;;;;;;5064964;28;20048;-65
2022/05/19 00:12:01;;;;;;;35.67;16.90;;;15.10;99.90;;;;;;5066830;28;20050;-63
2022/05/19 00:14:27;;;;;;;31.52;16.23;;;15.20;99.90;;;;;;5065269;28;20141;-62
2022/05/19 00:16:56;;;;;;;31.08;15.75;;;15.20;99.90;;;;;;5065525;28;20056;-62
2022/05/19 00:19:22;;;;;;;38.90;19.50;;;15.20;99.90;;;;;;5065875;28;20471;-65
2022/05/19 00:21:48;;;;;;;42.00;20.67;;;15.10;99.90;;;;;;5073659;28;20063;-62
2022/05/19 00:24:14;;;;;;;44.55;22.05;;;15.10;99.90;;;;;;5085658;28;20044;-64
2022/05/19 00:26:40;;;;;;;36.67;20.30;;;15.10;99.90;;;;;;5068076;28;20051;-61
2022/05/19 00:29:06;;;;;;;33.53;18.85;;;15.10;99.90;;;;;;5068854;28;20044;-59
2022/05/19 00:31:32;;;;;;;35.58;19.73;;;15.10;99.90;;;;;;5085043;28;20040;-62
2022/05/19 00:33:58;;;;;;;38.78;21.30;;;15.00;99.90;;;;;;5084800;28;20040;-59
2022/05/19 00:36:25;;;;;;;42.95;21.30;;;15.00;99.90;;;;;;5085726;28;20052;-65
2022/05/19 00:38:51;;;;;;;47.42;22.98;;;15.00;99.90;;;;;;5084951;28;20044;-58
2022/05/19 00:41:17;;;;;;;32.22;22.52;;;15.00;99.90;;;;;;5085499;28;20071;-63
2022/05/19 00:43:46;;;;;;;38.80;21.30;;;15.10;99.90;;;;;;5068267;28;20411;-58
2022/05/19 00:46:19;;;;;;;39.85;21.27;;;15.10;99.90;;;;;;5085527;28;20103;-59
2022/05/19 00:48:54;;;;;;;40.28;19.90;;;15.00;99.90;;;;;;5068854;28;20056;-64
2022/05/19 00:51:43;;;;;;;36.33;20.17;;;15.10;99.90;;;;;;5067523;28;20679;-63
2022/05/19 00:54:16;;;;;;;37.87;19.30;;;15.10;99.90;;;;;;5084869;28;20070;-58
2022/05/19 00:57:06;;;;;;;41.30;21.15;;;15.10;99.90;;;;;;5084704;28;20584;-63
2022/05/19 00:59:37;;;;;;;37.47;20.35;;;15.10;99.90;;;;;;5084549;28;20059;-64
2022/05/19 01:02:09;;;;;;;37.25;20.85;;;15.10;99.90;;;;;;5064496;28;20554;-64
2022/05/19 01:04:43;;;;;;;33.28;19.90;;;15.10;99.90;;;;;;5064181;28;20515;-65
2022/05/19 01:07:15;;;;;;;37.17;20.15;;;15.10;99.90;;;;;;5065751;28;20056;-63
2022/05/19 01:09:42;;;;;;;40.67;20.38;;;15.10;99.90;;;;;;5064473;28;20463;-65
2022/05/19 01:12:09;;;;;;;32.95;19.30;;;15.10;99.90;;;;;;5072140;28;20482;-63
2022/05/19 01:14:35;;;;;;;32.72;19.10;;;15.10;99.90;;;;;;5067977;28;20105;-58
2022/05/19 01:17:02;;;;;;;34.75;20.65;;;15.10;99.90;;;;;;5084923;28;20414;-70
2022/05/19 01:19:34;;;;;;;41.08;20.30;;;15.10;99.90;;;;;;5085024;28;20051;-64
2022/05/19 01:22:11;;;;;;;33.53;20.10;;;15.10;99.90;;;;;;5067401;28;20062;-59
2022/05/19 01:25:08;;;;;;;35.53;19.83;;;15.10;99.90;;;;;;5084975;28;20108;-60
2022/05/19 01:27:36;;;;;;;31.65;18.80;;;15.10;99.90;;;;;;5081415;28;20060;-62
2022/05/19 01:30:04;;;;;;;35.60;19.52;;;15.10;99.90;;;;;;5085997;28;20062;-64
2022/05/19 01:32:30;;;;;;;35.80;20.88;;;15.00;99.90;;;;;;5088170;28;20044;-59
2022/05/19 01:34:59;;;;;;;32.13;19.23;;;15.00;99.90;;;;;;5071884;28;20072;-62
2022/05/19 01:37:25;;;;;;;37.13;19.27;;;15.00;99.90;;;;;;5072148;28;20462;-66
2022/05/19 01:40:00;;;;;;;36.45;19.08;;;15.00;99.90;;;;;;5071311;28;20051;-62
2022/05/19 01:42:59;;;;;;;32.50;19.33;;;15.00;99.90;;;;;;5051655;28;20049;-58
2022/05/19 01:45:34;;;;;;;44.15;23.23;;;14.90;99.90;;;;;;5075344;28;20182;-65
2022/05/19 01:48:38;;;;;;;39.33;23.25;;;14.90;99.90;;;;;;5088304;28;20087;-62
2022/05/19 01:51:09;;;;;;;44.92;27.73;;;15.00;99.90;;;;;;5072095;28;20039;-65
2022/05/19 01:54:13;;;;;;;43.00;27.25;;;15.00;99.90;;;;;;5087603;28;20462;-60
2022/05/19 01:56:52;;;;;;;41.67;28.23;;;15.00;99.90;;;;;;5070724;28;20040;-59
2022/05/19 01:59:25;;;;;;;42.22;28.63;;;15.00;99.90;;;;;;5088997;28;20093;-62
2022/05/19 02:02:33;;;;;;;50.83;27.60;;;15.00;99.90;;;;;;5088180;28;20048;-59
2022/05/19 02:05:01;;;;;;;48.83;31.63;;;15.00;99.90;;;;;;5060163;28;20074;-58
2022/05/19 02:07:30;;;;;;;50.33;32.03;;;15.00;99.90;;;;;;5088177;28;20584;-59
2022/05/19 02:10:00;;;;;;;50.38;32.17;;;15.00;99.90;;;;;;5088128;28;20044;-63
2022/05/19 02:12:31;;;;;;;49.63;29.67;;;15.00;99.90;;;;;;5074266;28;20150;-70
2022/05/19 02:15:02;;;;;;;45.58;29.35;;;15.10;99.90;;;;;;5067705;28;20055;-67
2022/05/19 02:17:30;;;;;;;45.10;29.10;;;15.10;99.90;;;;;;5067504;28;20068;-58
2022/05/19 02:20:03;;;;;;;49.33;28.80;;;15.00;99.90;;;;;;5067965;28;20600;-58
2022/05/19 02:22:35;;;;;;;51.33;30.48;;;15.00;99.90;;;;;;5066893;28;20494;-63
2022/05/19 02:25:21;;;;;;;49.78;31.80;;;15.00;99.90;;;;;;5071824;28;20513;-61
2022/05/19 02:28:08;;;;;;;49.80;30.50;;;15.00;99.90;;;;;;5056358;28;20063;-58
2022/05/19 02:30:37;;;;;;;56.92;31.10;;;14.90;99.90;;;;;;5054117;28;20127;-63
2022/05/19 02:33:04;;;;;;;51.92;32.00;;;15.00;99.90;;;;;;5087803;28;20098;-62
2022/05/19 02:35:30;;;;;;;54.85;33.58;;;15.00;99.90;;;;;;5087036;28;20043;-65
2022/05/19 02:37:58;;;;;;;50.97;31.05;;;15.10;99.90;;;;;;5065103;28;20048;-62
2022/05/19 02:40:26;;;;;;;59.45;36.90;;;15.10;99.90;;;;;;5069068;28;20060;-61
2022/05/19 02:42:52;;;;;;;46.28;29.70;;;15.10;99.90;;;;;;5068593;28;20037;-60
2022/05/19 02:45:20;;;;;;;56.58;35.13;;;15.10;99.90;;;;;;5077017;28;20106;-62
2022/05/19 02:47:46;;;;;;;57.30;35.33;;;15.10;99.90;;;;;;5066742;28;20122;-59
2022/05/19 02:50:13;;;;;;;58.45;37.53;;;15.20;99.90;;;;;;5051309;28;20048;-59
2022/05/19 02:52:39;;;;;;;54.00;32.75;;;15.20;99.90;;;;;;5066740;28;20044;-67
2022/05/19 02:55:05;;;;;;;67.05;39.08;;;15.10;99.90;;;;;;5067909;28;20098;-65
2022/05/19 02:57:31;;;;;;;55.25;35.08;;;15.20;99.90;;;;;;5050657;28;20048;-61
2022/05/19 02:59:58;;;;;;;51.55;33.15;;;15.20;99.90;;;;;;5067368;28;20040;-61
2022/05/19 03:02:23;;;;;;;55.55;36.13;;;15.20;99.90;;;;;;5080340;28;20044;-60
2022/05/19 03:04:49;;;;;;;57.00;35.30;;;15.20;99.90;;;;;;5086798;28;20059;-64
2022/05/19 03:07:15;;;;;;;61.25;35.53;;;15.20;99.90;;;;;;5085473;28;20040;-58
2022/05/19 03:09:42;;;;;;;59.45;35.53;;;15.30;99.90;;;;;;5066269;28;20457;-67
2022/05/19 03:12:12;;;;;;;56.92;36.28;;;15.30;99.90;;;;;;5067332;28;20049;-60
2022/05/19 03:14:38;;;;;;;62.53;38.60;;;15.30;99.90;;;;;;5067383;28;20174;-62
2022/05/19 03:17:07;;;;;;;58.30;36.83;;;15.30;99.90;;;;;;5067001;28;20115;-65
2022/05/19 03:19:33;;;;;;;59.63;37.03;;;15.30;99.90;;;;;;5067048;28;20431;-61
2022/05/19 03:21:59;;;;;;;60.88;36.45;;;15.30;99.90;;;;;;5066379;28;20091;-60
2022/05/19 03:24:24;;;;;;;58.60;36.78;;;15.40;99.90;;;;;;5066563;28;20178;-63
2022/05/19 03:26:50;;;;;;;63.45;38.10;;;15.30;99.90;;;;;;5065840;28;20049;-61
2022/05/19 03:29:16;;;;;;;57.70;36.85;;;15.40;99.90;;;;;;5076155;28;20032;-61
2022/05/19 03:31:42;;;;;;;53.45;34.88;;;15.40;99.90;;;;;;5085324;28;20040;-65
2022/05/19 03:34:07;;;;;;;53.10;36.28;;;15.30;99.90;;;;;;5088593;28;20123;-62
2022/05/19 03:36:33;;;;;;;56.17;36.08;;;15.30;99.90;;;;;;5086018;28;20048;-60
2022/05/19 03:38:59;;;;;;;57.35;36.38;;;15.30;99.90;;;;;;5069535;28;20063;-58
2022/05/19 03:41:25;;;;;;;66.78;37.28;;;15.30;99.90;;;;;;5086214;28;20043;-66
2022/05/19 03:43:51;;;;;;;56.92;35.70;;;15.30;99.90;;;;;;5086272;28;20048;-59
2022/05/19 03:46:17;;;;;;;58.78;36.45;;;15.30;99.90;;;;;;5069853;28;20047;-63
2022/05/19 03:48:43;;;;;;;52.00;34.20;;;15.40;99.90;;;;;;5087005;28;20043;-64
2022/05/19 03:51:16;;;;;;;53.55;36.25;;;15.40;99.90;;;;;;5085981;28;20052;-66
2022/05/19 03:53:42;;;;;;;58.92;34.95;;;15.40;99.90;;;;;;5085016;28;20051;-60
2022/05/19 03:56:08;;;;;;;62.13;37.35;;;15.40;99.90;;;;;;5086495;28;20048;-64
2022/05/19 03:58:36;;;;;;;50.22;34.13;;;15.40;99.90;;;;;;5087256;28;20044;-65
2022/05/19 04:01:02;;;;;;;52.28;35.75;;;15.50;99.90;;;;;;5074213;28;20047;-59
2022/05/19 04:03:28;;;;;;;57.90;34.42;;;15.60;99.90;;;;;;5069228;28;20062;-57
2022/05/19 04:05:54;;;;;;;65.70;36.90;;;15.60;99.90;;;;;;5068735;28;20445;-65
2022/05/19 04:08:19;;;;;;;53.30;34.83;;;15.70;99.90;;;;;;5086283;28;20072;-63
2022/05/19 04:10:47;;;;;;;56.50;33.72;;;15.80;99.90;;;;;;5077895;28;20048;-62
2022/05/19 04:13:13;;;;;;;52.33;34.50;;;15.90;99.90;;;;;;5049355;28;20047;-61
2022/05/19 04:15:39;;;;;;;51.25;31.60;;;15.90;99.90;;;;;;5064883;28;20302;-60
2022/05/19 04:18:06;;;;;;;52.35;32.53;;;16.00;99.90;;;;;;5032643;28;20047;-59
2022/05/19 04:20:32;;;;;;;48.03;30.95;;;16.00;99.90;;;;;;5066924;28;20052;-61
2022/05/19 04:22:59;;;;;;;47.95;31.67;;;16.10;99.90;;;;;;5083032;28;20097;-65
2022/05/19 04:25:26;;;;;;;50.20;32.10;;;16.10;99.90;;;;;;5086305;28;20071;-67
2022/05/19 04:27:51;;;;;;;51.97;31.20;;;16.20;99.90;;;;;;5067914;28;20105;-58
2022/05/19 04:30:17;;;;;;;49.67;31.20;;;16.30;99.90;;;;;;5069503;28;20048;-64
2022/05/19 04:32:43;;;;;;;51.90;30.15;;;16.30;99.90;;;;;;5050763;28;20103;-60
2022/05/19 04:35:11;;;;;;;44.80;30.63;;;16.40;99.90;;;;;;5085598;28;20040;-66
2022/05/19 04:37:36;;;;;;;48.33;32.15;;;16.40;99.90;;;;;;5084894;28;20612;-65
2022/05/19 04:40:04;;;;;;;47.30;31.50;;;16.50;99.90;;;;;;5086007;28;20044;-65
2022/05/19 04:42:30;;;;;;;51.35;30.25;;;16.50;99.90;;;;;;5085512;28;20040;-57
2022/05/19 04:44:56;;;;;;;47.35;30.45;;;16.50;99.90;;;;;;5084614;28;20323;-59
2022/05/19 04:47:23;;;;;;;55.40;30.55;;;16.50;99.90;;;;;;5085699;28;20130;-62
2022/05/19 04:49:49;;;;;;;48.70;30.65;;;16.60;99.90;;;;;;5084415;28;20052;-68
2022/05/19 04:52:15;;;;;;;43.22;30.88;;;16.60;99.90;;;;;;5086502;28;20048;-59
2022/05/19 04:54:40;;;;;;;50.33;31.05;;;16.70;99.90;;;;;;5067931;28;20554;-57
2022/05/19 04:57:07;;;;;;;40.65;29.90;;;16.70;99.90;;;;;;5068624;28;20055;-60
2022/05/19 04:59:37;;;;;;;44.92;29.58;;;16.70;99.90;;;;;;5085189;28;20044;-70
2022/05/19 05:02:03;;;;;;;45.30;29.15;;;16.70;99.90;;;;;;5084941;28;20040;-62
2022/05/19 05:04:30;;;;;;;50.88;29.70;;;16.80;99.90;;;;;;5068349;28;20482;-64
2022/05/19 05:06:57;;;;;;;42.75;29.35;;;16.80;99.90;;;;;;5083819;28;20486;-59
2022/05/19 05:09:23;;;;;;;41.22;29.02;;;16.80;99.90;;;;;;5068446;28;20048;-64
2022/05/19 05:11:49;;;;;;;49.15;29.30;;;16.90;99.90;;;;;;5067594;28;20360;-58
2022/05/19 05:14:16;;;;;;;55.80;30.55;;;16.90;99.90;;;;;;5086311;28;20086;-59
2022/05/19 05:16:50;;;;;;;40.58;28.15;;;17.00;99.90;;;;;;5085908;28;20597;-60
2022/05/19 05:19:19;;;;;;;46.40;29.88;;;17.10;99.90;;;;;;5084692;28;20059;-57
2022/05/19 05:21:45;;;;;;;47.65;30.75;;;17.10;99.90;;;;;;5084644;28;20056;-59
2022/05/19 05:24:11;;;;;;;44.22;30.17;;;17.20;99.90;;;;;;5084700;28;20073;-63
2022/05/19 05:26:37;;;;;;;47.35;30.98;;;17.30;99.90;;;;;;5069057;28;21027;-61
2022/05/19 05:29:03;;;;;;;47.38;31.00;;;17.30;99.90;;;;;;5085436;28;20389;-66
2022/05/19 05:31:30;;;;;;;44.88;29.98;;;17.30;99.90;;;;;;5083812;28;20044;-62
2022/05/19 05:33:56;;;;;;;44.88;30.00;;;17.30;99.90;;;;;;5083866;28;20079;-61
2022/05/19 05:36:22;;;;;;;46.03;30.02;;;17.30;99.90;;;;;;5067825;28;20043;-63
2022/05/19 05:38:47;;;;;;;50.50;31.02;;;17.40;99.90;;;;;;5085931;28;20036;-61
2022/05/19 05:41:14;;;;;;;47.80;30.98;;;17.40;99.90;;;;;;5065813;28;20048;-68
2022/05/19 05:43:40;;;;;;;48.13;31.10;;;17.40;99.90;;;;;;5032012;28;20133;-61
2022/05/19 05:46:14;;;;;;;48.42;31.25;;;17.50;99.90;;;;;;5048731;28;20106;-57
2022/05/19 05:48:43;;;;;;;43.85;28.85;;;17.50;99.90;;;;;;5048334;28;20479;-66
2022/05/19 05:51:11;;;;;;;51.05;32.28;;;17.60;99.90;;;;;;5064573;28;20051;-57
2022/05/19 05:53:38;;;;;;;44.08;29.52;;;17.70;99.90;;;;;;5065243;28;20051;-58
2022/05/19 05:56:06;;;;;;;43.65;29.40;;;17.90;99.90;;;;;;5064629;28;20044;-58
2022/05/19 05:58:32;;;;;;;47.65;31.70;;;18.00;99.90;;;;;;5064151;28;20059;-64
2022/05/19 06:00:58;;;;;;;46.67;30.67;;;18.10;99.90;;;;;;5067336;28;20048;-64
2022/05/19 06:03:25;;;;;;;44.58;30.85;;;18.20;99.90;;;;;;5073159;28;20052;-60
2022/05/19 06:05:50;;;;;;;48.15;31.05;;;18.20;99.90;;;;;;5064103;28;20447;-61
2022/05/19 06:08:16;;;;;;;49.47;30.75;;;18.20;99.90;;;;;;5064018;28;20119;-60
2022/05/19 06:10:42;;;;;;;49.42;30.60;;;18.10;99.90;;;;;;5064876;28;20052;-60
2022/05/19 06:13:10;;;;;;;40.40;28.15;;;18.10;99.90;;;;;;5070454;28;20040;-63
2022/05/19 06:15:36;;;;;;;41.85;28.35;;;18.10;99.90;;;;;;5084119;28;20033;-57
2022/05/19 06:18:01;;;;;;;42.55;28.60;;;18.20;99.90;;;;;;5089041;28;20088;-69
2022/05/19 06:20:27;;;;;;;43.17;29.58;;;18.40;99.90;;;;;;5087584;28;20047;-60
2022/05/19 06:22:53;;;;;;;39.33;28.35;;;18.60;99.90;;;;;;5086234;28;20742;-68
2022/05/19 06:25:21;;;;;;;37.63;23.85;;;18.70;99.90;;;;;;5067476;28;20056;-64
2022/05/19 06:27:49;;;;;;;37.03;24.67;;;18.90;99.90;;;;;;5067740;28;20116;-67
2022/05/19 06:30:16;;;;;;;39.17;24.65;;;19.20;99.90;;;;;;5068010;28;20060;-59
2022/05/19 06:32:43;;;;;;;31.92;22.77;;;19.50;99.90;;;;;;5084384;28;20048;-64
2022/05/19 06:35:11;;;;;;;40.10;23.67;;;19.70;99.90;;;;;;5089197;28;20079;-59
2022/05/19 06:37:37;;;;;;;33.40;20.15;;;19.90;99.90;;;;;;5087568;28;20101;-60
2022/05/19 06:40:03;;;;;;;28.45;21.17;;;20.00;99.90;;;;;;5070898;28;20483;-60
2022/05/19 06:42:29;;;;;;;29.90;19.90;;;20.00;99.90;;;;;;5065776;28;20040;-62
2022/05/19 06:44:56;;;;;;;28.02;19.23;;;20.00;99.90;;;;;;5070248;28;20174;-67
2022/05/19 06:47:22;;;;;;;26.75;19.23;;;20.00;99.90;;;;;;5070871;28;20047;-65
2022/05/19 06:49:55;;;;;;;25.23;18.73;;;20.00;99.90;;;;;;5086770;28;20054;-63
2022/05/19 06:52:31;;;;;;;25.17;17.75;;;19.90;99.90;;;;;;5065601;28;20040;-62
2022/05/19 06:54:59;;;;;;;24.27;17.60;;;20.20;99.90;;;;;;5068133;28;20117;-61
2022/05/19 06:57:27;;;;;;;24.10;16.55;;;20.40;99.90;;;;;;5087411;28;20363;-62
2022/05/19 06:59:53;;;;;;;21.50;16.45;;;20.50;99.90;;;;;;5085601;28;20039;-59
2022/05/19 07:02:22;;;;;;;24.95;17.05;;;20.70;99.90;;;;;;5086629;28;20489;-66
2022/05/19 07:04:47;;;;;;;25.40;16.45;;;21.00;99.90;;;;;;5086813;28;20051;-66
2022/05/19 07:07:14;;;;;;;24.75;16.00;;;21.10;99.90;;;;;;5068764;28;20757;-67
2022/05/19 07:09:40;;;;;;;27.05;17.50;;;21.10;99.90;;;;;;5067430;28;20415;-59
2022/05/19 07:12:09;;;;;;;20.75;14.20;;;21.20;99.90;;;;;;5066273;28;20044;-62
2022/05/19 07:14:35;;;;;;;26.13;14.40;;;21.30;99.90;;;;;;5067163;28;20049;-62
2022/05/19 07:17:01;;;;;;;24.38;14.07;;;21.50;99.90;;;;;;5077850;28;20083;-67
2022/05/19 07:22:22;;;;;;;15.85;12.02;;;21.50;99.90;;;;;;5085784;28;20097;-62
2022/05/19 07:24:48;;;;;;;15.93;12.25;;;21.30;99.90;;;;;;5085702;28;20126;-64
2022/05/19 07:27:14;;;;;;;24.27;12.15;;;21.10;99.90;;;;;;5068786;28;20040;-63
2022/05/19 07:29:41;;;;;;;21.02;13.43;;;20.80;99.90;;;;;;5084498;28;20047;-62
2022/05/19 07:32:08;;;;;;;23.52;14.82;;;20.70;99.90;;;;;;5085716;28;20506;-59
2022/05/19 07:34:35;;;;;;;22.38;15.00;;;20.70;99.90;;;;;;5085541;28;20056;-60
2022/05/19 07:37:01;;;;;;;24.45;15.90;;;20.80;99.90;;;;;;5084599;28;20036;-68
2022/05/19 07:39:27;;;;;;;25.02;16.05;;;20.80;99.90;;;;;;5068802;28;20097;-62
2022/05/19 07:41:55;;;;;;;29.40;16.80;;;20.90;99.90;;;;;;5085242;28;20055;-66
2022/05/19 07:44:23;;;;;;;27.67;15.63;;;20.50;99.90;;;;;;5087232;28;20058;-69
2022/05/19 07:46:49;;;;;;;30.27;15.63;;;20.10;99.90;;;;;;5084578;28;20044;-68
2022/05/19 07:49:15;;;;;;;28.52;15.05;;;19.60;99.90;;;;;;5084560;28;20138;-64
2022/05/19 07:51:42;;;;;;;28.58;14.30;;;19.20;99.90;;;;;;5084107;28;20044;-67
2022/05/19 07:54:18;;;;;;;35.10;15.48;;;19.00;99.90;;;;;;5086028;28;20160;-65
2022/05/19 07:56:44;;;;;;;31.05;14.75;;;18.80;99.90;;;;;;5085619;28;20138;-67
2022/05/19 07:59:10;;;;;;;28.25;13.70;;;18.50;99.90;;;;;;5084670;28;20168;-61
2022/05/19 08:01:37;;;;;;;27.05;14.20;;;18.20;99.90;;;;;;5085705;28;20048;-60
2022/05/19 08:04:03;;;;;;;31.77;14.88;;;18.10;99.90;;;;;;5068020;28;20097;-68
2022/05/19 08:06:29;;;;;;;29.75;14.60;;;18.00;99.90;;;;;;5087456;28;20055;-63
2022/05/19 08:08:58;;;;;;;30.20;14.52;;;18.00;99.90;;;;;;5083196;28;20043;-59
2022/05/19 08:11:24;;;;;;;29.48;13.30;;;17.90;99.90;;;;;;5085427;28;20406;-64
2022/05/19 08:16:34;;;;;;;23.48;10.50;;;17.90;99.90;;;;;;5085779;28;20060;-60
2022/05/19 08:18:59;;;;;;;25.50;10.30;;;17.90;99.90;;;;;;5081102;28;20046;-59
2022/05/19 08:21:25;;;;;;;21.42;10.15;;;18.00;99.90;;;;;;5083851;28;20606;-66
2022/05/19 08:23:51;;;;;;;22.55;9.85;;;18.10;99.90;;;;;;5086021;28;20048;-61
2022/05/19 08:26:17;;;;;;;19.60;9.07;;;18.20;99.90;;;;;;5067454;28;20101;-61
2022/05/19 08:28:44;;;;;;;23.00;9.50;;;18.30;99.90;;;;;;5085047;28;20085;-60
2022/05/19 08:31:22;;;;;;;25.52;9.25;;;18.20;99.90;;;;;;5083558;28;20039;-63
2022/05/19 08:33:51;;;;;;;22.48;9.05;;;18.20;99.90;;;;;;5083998;28;20075;-61
2022/05/19 08:36:17;;;;;;;19.27;8.87;;;18.20;99.90;;;;;;5084187;28;20123;-65
2022/05/19 08:38:43;;;;;;;23.95;10.00;;;18.20;99.90;;;;;;5084669;28;20135;-64
2022/05/19 08:41:25;;;;;;;18.63;9.20;;;18.20;99.90;;;;;;5081915;28;20048;-64
2022/05/19 08:44:14;;;;;;;24.88;10.20;;;18.10;99.90;;;;;;5076874;28;20482;-61
2022/05/19 08:46:43;;;;;;;20.33;11.02;;;18.20;99.90;;;;;;5083944;28;20048;-65
2022/05/19 08:49:15;;;;;;;;;;;18.20;99.90;;;;;;5084744;28;20043;-65
2022/05/19 08:51:50;;;;;;;19.25;10.52;;;18.20;99.90;;;;;;5083281;28;20270;-63
2022/05/19 08:54:23;;;;;;;23.83;11.52;;;18.30;99.90;;;;;;5067788;28;20051;-60
2022/05/19 08:56:59;;;;;;;23.08;10.98;;;18.50;99.90;;;;;;5083963;28;20047;-63
2022/05/19 08:59:31;;;;;;;20.60;12.00;;;18.50;99.90;;;;;;5084427;28;20052;-68
2022/05/19 09:02:06;;;;;;;22.95;10.90;;;18.60;99.90;;;;;;5083940;28;20556;-71
2022/05/19 09:05:06;;;;;;;24.33;13.40;;;18.60;99.90;;;;;;5067812;28;20182;-65
2022/05/19 09:10:23;;;;;;;21.95;12.45;;;18.70;99.90;;;;;;5075508;28;20619;-67
2022/05/19 09:13:01;;;;;;;24.23;12.68;;;18.60;99.90;;;;;;5083828;28;20056;-68
2022/05/19 09:15:27;;;;;;;31.30;14.02;;;18.70;99.90;;;;;;5069125;28;20109;-68
2022/05/19 09:17:53;;;;;;;25.13;13.70;;;18.70;99.90;;;;;;5084886;28;20036;-59
2022/05/19 09:20:25;;;;;;;32.88;15.00;;;18.80;99.90;;;;;;5067469;28;20497;-61
2022/05/19 09:22:51;;;;;;;28.60;15.68;;;18.80;99.90;;;;;;5079959;28;20044;-63
2022/05/19 09:25:21;;;;;;;30.10;15.50;;;18.80;99.90;;;;;;5066098;28;20051;-67
2022/05/19 09:27:50;;;;;;;31.13;15.55;;;18.90;99.90;;;;;;5084360;28;20913;-68
2022/05/19 09:30:29;;;;;;;27.88;15.02;;;19.10;99.90;;;;;;5066996;28;20119;-60
2022/05/19 09:32:56;;;;;;;32.45;15.25;;;19.30;99.90;;;;;;5084178;28;20044;-68
2022/05/19 09:35:38;;;;;;;34.55;15.07;;;19.40;99.90;;;;;;5066929;28;20040;-71
2022/05/19 09:38:27;;;;;;;34.88;15.93;;;19.50;99.90;;;;;;5067462;28;20091;-67
2022/05/19 09:40:59;;;;;;;28.33;15.27;;;19.80;99.90;;;;;;5084767;28;20097;-63
2022/05/19 09:43:36;;;;;;;25.67;14.75;;;20.10;99.90;;;;;;5058679;28;20052;-68
2022/05/19 09:46:09;;;;;;;25.55;16.27;;;20.40;99.90;;;;;;5064225;28;20060;-61
2022/05/19 09:48:41;;;;;;;27.90;16.65;;;20.60;99.90;;;;;;5064376;28;20128;-62
2022/05/19 09:51:14;;;;;;;29.95;16.50;;;20.80;99.90;;;;;;5064263;28;20056;-66
2022/05/19 09:53:55;;;;;;;31.55;16.55;;;20.90;99.90;;;;;;5074816;28;20055;-61
2022/05/19 09:56:39;;;;;;;27.55;15.77;;;21.10;99.90;;;;;;5069164;28;20414;-73
2022/05/19 09:59:16;;;;;;;29.52;16.80;;;21.10;99.90;;;;;;5073357;28;20048;-65
2022/05/19 10:01:45;;;;;;;32.55;18.67;;;21.20;99.90;;;;;;5075949;28;20059;-62
2022/05/19 10:04:14;;;;;;;27.85;16.95;;;21.40;99.90;;;;;;5071932;28;20419;-64
2022/05/19 10:06:53;;;;;;;28.83;17.60;;;21.50;99.90;;;;;;5084165;28;20152;-61
2022/05/19 10:09:29;;;;;;;25.48;15.80;;;21.50;99.90;;;;;;5086797;28;20082;-63
2022/05/19 10:12:11;;;;;;;29.00;16.33;;;21.50;99.90;;;;;;5088423;28;20044;-63
2022/05/19 10:14:40;;;;;;;25.13;15.85;;;21.50;99.90;;;;;;5085430;28;20113;-68
2022/05/19 10:17:40;;;;;;;26.57;15.83;;;21.60;99.90;;;;;;5086547;28;20051;-65
2022/05/19 10:20:11;;;;;;;26.98;13.50;;;21.60;99.90;;;;;;5086648;28;20075;-66
2022/05/19 10:23:09;;;;;;;28.13;13.60;;;21.60;99.90;;;;;;5069894;28;20410;-64
2022/05/19 10:25:43;;;;;;;23.67;13.35;;;21.60;99.90;;;;;;5086816;28;20517;-60
2022/05/19 10:31:31;;;;;;;18.70;12.02;;;21.70;99.90;;;;;;5086477;28;20491;-71
2022/05/19 10:34:31;;;;;;;23.35;12.98;;;21.80;99.90;;;;;;5087503;28;20126;-67
2022/05/19 10:37:24;;;;;;;20.85;11.23;;;22.00;99.90;;;;;;5086276;28;20080;-69
2022/05/19 10:40:00;;;;;;;17.50;10.32;;;22.10;99.70;;;;;;5069632;28;20064;-69
2022/05/19 10:42:51;;;;;;;21.65;10.15;;;22.30;99.90;;;;;;5086035;28;20116;-65
2022/05/19 10:45:25;;;;;;;14.20;8.30;;;22.60;97.60;;;;;;5064167;28;20071;-61
2022/05/19 10:48:15;;;;;;;11.23;6.60;;;22.80;97.10;;;;;;5069579;28;20119;-66
2022/05/19 10:51:07;;;;;;;10.93;5.85;;;22.90;94.30;;;;;;5071354;28;20074;-61
2022/05/19 10:53:59;;;;;;;9.73;6.28;;;22.90;86.10;;;;;;5085587;28;20182;-69
2022/05/19 10:56:59;;;;;;;10.43;4.65;;;23.10;99.00;;;;;;5081106;28;20036;-63
2022/05/19 10:59:54;;;;;;;8.52;5.03;;;23.30;81.30;;;;;;5085317;28;20148;-69
2022/05/19 11:02:31;;;;;;;11.13;5.53;;;23.20;91.80;;;;;;5061996;28;20055;-65
2022/05/19 11:05:00;;;;;;;7.22;4.70;;;23.10;88.30;;;;;;5085579;28;20050;-69
2022/05/19 11:07:52;;;;;;;9.30;5.00;;;23.20;83.00;;;;;;5084726;28;20052;-59
2022/05/19 11:10:42;;;;;;;5.10;4.50;;;23.30;88.90;;;;;;5054894;28;20109;-66
2022/05/19 11:13:17;;;;;;;13.90;4.85;;;23.40;86.90;;;;;;5087047;28;20048;-64
2022/05/19 11:15:56;;;;;;;7.97;4.70;;;23.40;91.90;;;;;;5087608;28;20048;-63
2022/05/19 11:18:28;;;;;;;10.20;5.57;;;23.30;77.20;;;;;;5074527;28;20044;-70
2022/05/19 11:21:27;;;;;;;11.38;7.30;;;23.20;81.60;;;;;;5067886;28;20088;-70
2022/05/19 11:24:21;;;;;;;9.05;6.50;;;23.20;91.10;;;;;;5086498;28;20051;-70
2022/05/19 11:27:10;;;;;;;13.00;8.23;;;23.20;91.00;;;;;;5069188;28;20050;-59
2022/05/19 11:29:48;;;;;;;15.02;7.85;;;23.00;90.10;;;;;;5068688;28;20390;-60
2022/05/19 11:32:14;;;;;;;11.82;7.28;;;23.10;92.00;;;;;;5085209;28;20135;-67
2022/05/19 11:35:07;;;;;;;11.38;6.47;;;23.20;83.90;;;;;;5087327;28;20464;-61
2022/05/19 11:37:40;;;;;;;7.95;6.47;;;23.30;89.80;;;;;;5085745;28;20253;-67
2022/05/19 11:40:18;;;;;;;10.13;6.45;;;23.30;83.90;;;;;;5085414;28;20492;-68
2022/05/19 11:43:14;;;;;;;11.85;7.18;;;23.30;89.30;;;;;;5086347;28;20047;-61
2022/05/19 11:45:58;;;;;;;12.85;7.38;;;23.30;79.80;;;;;;5068913;28;20123;-59
2022/05/19 11:58:01;;;;;;;11.98;8.93;;;23.10;93.50;;;;;;5084670;28;20059;-61
2022/05/19 12:00:41;;;;;;;13.70;9.07;;;23.00;91.40;;;;;;5041458;28;20056;-59
2022/05/19 12:03:17;;;;;;;17.13;8.90;;;22.90;92.10;;;;;;5085420;28;20083;-64
2022/05/19 12:06:13;;;;;;;12.07;9.25;;;22.80;94.50;;;;;;5085832;28;20682;-59
2022/05/19 12:08:59;;;;;;;15.20;10.00;;;22.80;94.90;;;;;;5065766;28;20817;-59
2022/05/19 12:11:52;;;;;;;20.25;9.38;;;22.90;97.30;;;;;;5081911;28;20498;-61
2022/05/19 12:14:27;;;;;;;18.98;10.52;;;23.00;94.40;;;;;;5071909;28;20159;-67
2022/05/19 12:16:59;;;;;;;18.73;10.00;;;23.10;96.40;;;;;;5068997;28;20071;-61
2022/05/19 12:19:47;;;;;;;17.25;10.73;;;23.20;95.00;;;;;;5067381;28;20438;-62
2022/05/19 12:22:31;;;;;;;14.13;10.20;;;23.40;97.20;;;;;;5076611;28;20080;-63
2022/05/19 12:25:00;;;;;;;15.82;9.85;;;23.60;94.90;;;;;;5077880;28;20514;-63
2022/05/19 12:28:05;;;;;;;14.05;9.88;;;23.80;95.00;;;;;;5063508;28;20056;-65
2022/05/19 12:33:24;;;;;;;16.08;9.48;;;24.10;92.80;;;;;;5102132;28;20060;-60
2022/05/19 12:36:23;;;;;;;15.68;11.00;;;24.20;93.50;;;;;;5085319;28;20051;-63
2022/05/19 12:38:51;;;;;;;19.05;10.63;;;24.10;87.10;;;;;;5079571;28;20083;-65
2022/05/19 12:41:23;;;;;;;15.40;10.95;;;24.10;91.60;;;;;;5067975;28;20049;-62
2022/05/19 12:43:51;;;;;;;13.75;9.95;;;24.10;90.30;;;;;;5068766;28;20059;-64
2022/05/19 12:46:55;;;;;;;13.63;9.77;;;24.20;91.10;;;;;;5069160;28;20070;-64
2022/05/19 12:49:25;;;;;;;14.65;10.25;;;24.30;90.60;;;;;;5075377;28;20139;-64
2022/05/19 12:52:00;;;;;;;12.82;9.98;;;24.30;84.50;;;;;;5081773;28;20047;-61
2022/05/19 12:54:30;;;;;;;15.25;11.30;;;24.40;92.90;;;;;;5047708;28;20474;-70
2022/05/19 12:57:20;;;;;;;16.27;10.00;;;24.50;93.40;;;;;;5048397;28;20106;-63
2022/05/19 12:59:48;;;;;;;11.27;9.50;;;24.60;94.50;;;;;;5064614;28;20067;-63
2022/05/19 13:02:20;;;;;;;14.82;9.10;;;24.50;87.40;;;;;;5076060;28;20498;-64
2022/05/19 13:04:52;;;;;;;12.68;8.95;;;24.50;90.40;;;;;;5068658;28;20044;-62
2022/05/19 13:07:34;;;;;;;12.88;9.07;;;24.30;88.90;;;;;;5084898;28;20054;-64
2022/05/19 13:10:23;;;;;;;11.10;9.48;;;24.20;86.90;;;;;;5067972;28;20447;-65
2022/05/19 13:13:01;;;;;;;12.45;9.45;;;24.10;85.60;;;;;;5078910;28;20448;-60
2022/05/19 13:15:45;;;;;;;18.37;9.17;;;24.00;88.40;;;;;;5047620;28;20099;-65
2022/05/19 13:18:12;;;;;;;11.23;8.52;;;23.80;88.90;;;;;;5065157;28;20145;-67